createdAt,value
2023-03-18T05:06:23.641Z,7.90
2023-03-18T05:08:51.514Z,7.80
2023-03-18T05:11:19.729Z,7.90
2023-03-18T05:13:47.812Z,7.90
2023-03-18T05:16:15.885Z,7.80
2023-03-18T05:18:44.687Z,7.90
2023-03-18T05:21:12.522Z,7.90
2023-03-18T05:23:41.965Z,7.90
2023-03-18T05:26:11.645Z,7.90
2023-03-18T05:28:40.261Z,7.90
2023-03-18T05:31:08.054Z,8.00
2023-03-18T05:33:42.974Z,7.90
2023-03-18T05:36:11.176Z,8.00
2023-03-18T10:07:51.683Z,13.80
2023-03-18T10:10:28.691Z,13.90
2023-03-18T10:13:04.412Z,14.20
2023-03-18T10:38:25.305Z,14.10
2023-03-18T10:40:53.369Z,14.10
2023-03-18T10:43:25.459Z,14.20
2023-03-18T10:46:00.999Z,14.50
2023-03-18T10:48:34.950Z,14.90
2023-03-18T10:51:13.716Z,15.20
2023-03-18T10:53:47.938Z,15.40
2023-03-18T10:56:16.582Z,15.40
2023-03-18T10:58:44.750Z,15.60
2023-03-18T11:01:20.198Z,15.80
2023-03-18T11:03:52.767Z,16.20
2023-03-18T11:06:25.606Z,16.40
2023-03-18T11:09:04.820Z,16.10
2023-03-18T11:11:34.671Z,16.10
2023-03-18T11:14:06.811Z,16.20
2023-03-18T11:24:10.433Z,16.40
2023-03-18T11:26:53.493Z,16.50
2023-03-18T11:29:25.227Z,16.50
2023-03-18T11:31:54.905Z,16.90
2023-03-18T11:34:23.210Z,16.80
2023-03-18T11:36:58.956Z,16.80
2023-03-18T11:39:31.190Z,16.70
2023-03-18T11:42:00.445Z,16.70
2023-03-18T11:44:32.693Z,17.10
2023-03-18T11:47:10.755Z,17.20
2023-03-18T11:49:38.919Z,17.20
2023-03-18T11:52:22.353Z,17.10
2023-03-18T11:55:09.508Z,17.40
2023-03-18T11:57:51.331Z,17.00
2023-03-18T12:00:28.143Z,16.80
2023-03-18T12:03:35.735Z,17.10
2023-03-18T12:06:13.130Z,17.30
2023-03-18T12:08:50.747Z,17.50
2023-03-18T12:11:35.801Z,17.50
2023-03-18T12:14:10.637Z,17.60
2023-03-18T12:20:53.342Z,18.40
2023-03-18T12:23:42.272Z,18.30
2023-03-18T12:26:15.433Z,18.00
2023-03-18T12:28:52.757Z,18.20
2023-03-18T12:31:43.979Z,18.30
2023-03-18T12:34:22.469Z,18.70
2023-03-18T12:37:06.187Z,19.40
2023-03-18T12:39:52.613Z,18.90
2023-03-18T12:42:29.072Z,18.90
2023-03-18T12:45:02.106Z,19.40
2023-03-18T12:47:37.178Z,19.00
2023-03-18T12:50:13.629Z,19.50
2023-03-18T12:52:45.589Z,19.50
2023-03-18T12:55:17.451Z,19.40
2023-03-18T12:57:49.213Z,19.50
2023-03-18T13:00:30.398Z,20.00
2023-03-18T13:03:06.201Z,19.70
2023-03-18T13:05:41.507Z,19.50
2023-03-18T13:08:37.190Z,20.40
2023-03-18T13:11:12.418Z,20.70
2023-03-18T13:13:46.645Z,20.30
2023-03-18T13:16:16.563Z,21.00
2023-03-18T13:18:48.605Z,20.70
2023-03-18T13:21:20.515Z,21.20
2023-03-18T13:24:16.693Z,21.30
2023-03-18T13:27:38.383Z,21.50
2023-03-18T13:30:15.372Z,22.20
2023-03-18T13:33:05.525Z,21.60
2023-03-18T13:35:55.607Z,22.30
2023-03-18T13:38:49.778Z,22.20
2023-03-18T13:41:36.946Z,21.70
2023-03-18T13:44:11.488Z,22.20
2023-03-18T13:46:41.565Z,22.10
2023-03-18T13:49:21.738Z,22.50
2023-03-18T13:51:53.033Z,21.70
2023-03-18T13:54:21.879Z,22.10
2023-03-18T13:56:55.535Z,21.90
2023-03-18T13:59:48.895Z,21.60
2023-03-18T14:02:33.593Z,22.30
2023-03-18T14:05:04.088Z,22.80
2023-03-18T14:07:34.853Z,23.60
2023-03-18T14:10:22.592Z,24.20
2023-03-18T14:12:53.604Z,23.50
2023-03-18T14:15:38.072Z,23.30
2023-03-18T14:18:20.252Z,22.50
2023-03-18T14:20:54.090Z,23.50
2023-03-18T14:23:40.864Z,23.80
2023-03-18T14:26:19.437Z,23.70
2023-03-18T14:28:49.318Z,22.90
2023-03-18T14:31:50.764Z,24.00
2023-03-18T14:34:26.632Z,24.90
2023-03-18T14:37:19.892Z,22.70
2023-03-18T14:39:52.640Z,21.70
2023-03-18T14:42:53.734Z,21.50
2023-03-18T14:45:27.302Z,21.50
2023-03-18T14:47:56.423Z,22.40
2023-03-18T14:50:32.814Z,23.10
2023-03-18T14:53:10.998Z,22.40
2023-03-18T14:55:40.247Z,22.10
2023-03-18T14:58:12.761Z,21.70
2023-03-18T15:00:40.610Z,22.40
2023-03-18T15:03:15.503Z,23.10
2023-03-18T15:05:46.465Z,23.10
2023-03-18T15:08:19.512Z,22.80
2023-03-18T15:10:48.879Z,23.70
2023-03-18T15:13:19.076Z,23.50
2023-03-18T15:15:47.337Z,22.00
2023-03-18T15:18:22.896Z,21.00
2023-03-18T15:20:54.528Z,20.60
2023-03-18T15:23:30.345Z,21.90
2023-03-18T15:25:58.494Z,22.70
2023-03-18T15:28:29.336Z,22.40
2023-03-18T15:30:59.716Z,22.50
2023-03-18T15:33:31.520Z,23.10
2023-03-18T15:36:06.153Z,23.20
2023-03-18T15:38:35.383Z,22.80
2023-03-18T15:41:07.284Z,22.10
2023-03-18T15:43:40.747Z,22.70
2023-03-18T15:46:16.256Z,23.30
2023-03-18T15:48:47.813Z,23.80
2023-03-18T15:51:26.682Z,23.80
2023-03-18T15:53:57.772Z,24.30
2023-03-18T15:56:30.172Z,23.20
2023-03-18T15:59:00.688Z,22.50
2023-03-18T16:01:28.689Z,22.90
2023-03-18T16:03:56.648Z,23.10
2023-03-18T16:06:26.767Z,23.50
2023-03-18T16:08:55.883Z,23.70
2023-03-18T16:11:24.971Z,24.40
2023-03-18T16:13:53.845Z,24.50
2023-03-18T16:16:28.909Z,24.80
2023-03-18T16:18:59.325Z,25.40
2023-03-18T16:21:27.527Z,26.00
2023-03-18T16:23:56.780Z,25.60
2023-03-18T16:26:24.893Z,24.80
2023-03-18T16:28:52.930Z,23.90
2023-03-18T16:31:20.724Z,23.80
2023-03-18T16:33:52.675Z,23.30
2023-03-18T16:36:26.768Z,22.40
2023-03-18T16:38:56.190Z,22.10
2023-03-18T16:41:26.114Z,21.60
2023-03-18T16:43:53.864Z,20.90
2023-03-18T16:46:21.943Z,20.40
2023-03-18T16:48:50.384Z,19.70
2023-03-18T16:51:19.124Z,19.10
2023-03-18T16:53:46.950Z,18.80
2023-03-18T16:56:20.729Z,18.60
2023-03-18T16:58:48.517Z,18.30
2023-03-18T17:01:19.359Z,17.90
2023-03-18T17:03:48.031Z,17.60
2023-03-18T17:06:15.806Z,17.40
2023-03-18T17:08:43.602Z,17.20
2023-03-18T17:11:17.990Z,17.00
2023-03-18T17:13:47.441Z,16.80
2023-03-18T17:16:18.652Z,16.60
2023-03-18T17:18:46.407Z,16.40
2023-03-18T17:21:14.406Z,16.30
2023-03-18T17:23:44.486Z,16.20
2023-03-18T17:26:14.512Z,16.00
2023-03-18T17:28:44.632Z,15.80
2023-03-18T17:31:14.642Z,15.60
2023-03-18T17:33:46.977Z,15.50
2023-03-18T17:36:16.041Z,15.40
2023-03-18T17:38:49.186Z,15.30
2023-03-18T17:41:23.130Z,15.20
2023-03-18T17:43:53.701Z,15.20
2023-03-18T17:46:28.831Z,15.10
2023-03-18T17:48:57.257Z,15.00
2023-03-18T17:51:28.486Z,15.00
2023-03-18T17:54:00.119Z,14.90
2023-03-18T17:56:28.265Z,14.80
2023-03-18T17:58:56.148Z,14.70
2023-03-18T18:01:27.596Z,14.60
2023-03-18T18:03:56.579Z,14.60
2023-03-18T18:06:27.154Z,14.50
2023-03-18T18:08:58.881Z,14.40
2023-03-18T18:11:29.075Z,14.30
2023-03-18T18:13:59.262Z,14.20
2023-03-18T18:16:28.452Z,14.20
2023-03-18T18:18:56.272Z,14.10
2023-03-18T18:21:26.044Z,14.10
2023-03-18T18:23:53.948Z,14.00
2023-03-18T18:26:22.746Z,14.00
2023-03-18T18:28:52.144Z,13.90
2023-03-18T18:31:23.858Z,13.90
2023-03-18T18:33:55.672Z,13.90
2023-03-18T18:36:27.939Z,13.90
2023-03-18T18:38:55.870Z,13.90
2023-03-18T18:41:23.683Z,13.90
2023-03-18T18:43:51.806Z,13.90
2023-03-18T18:46:21.374Z,13.90
2023-03-18T18:48:49.536Z,13.80
2023-03-18T18:51:21.411Z,13.80
2023-03-18T18:53:52.325Z,13.70
2023-03-18T18:56:25.259Z,13.70
2023-03-18T18:58:56.628Z,13.60
2023-03-18T19:01:27.629Z,13.50
2023-03-18T19:03:55.482Z,13.50
2023-03-18T19:06:30.862Z,13.50
2023-03-18T19:09:00.615Z,13.50
2023-03-18T19:11:30.556Z,13.40
2023-03-18T19:14:18.623Z,13.40
2023-03-18T19:16:48.270Z,13.40
2023-03-18T19:19:19.045Z,13.30
2023-03-18T19:21:50.946Z,13.30
2023-03-18T19:24:26.683Z,13.20
2023-03-18T19:26:55.740Z,13.30
2023-03-18T19:29:23.814Z,13.30
2023-03-18T19:31:52.793Z,13.20
2023-03-18T19:34:23.205Z,13.20
2023-03-18T19:36:54.712Z,13.10
2023-03-18T19:39:24.500Z,13.00
2023-03-18T19:41:58.070Z,13.00
2023-03-18T19:44:27.525Z,13.00
2023-03-18T19:46:58.486Z,12.90
2023-03-18T19:49:28.404Z,12.80
2023-03-18T19:51:57.558Z,12.80
2023-03-18T19:54:29.006Z,12.80
2023-03-18T19:57:00.298Z,12.70
2023-03-18T19:59:37.497Z,12.70
2023-03-18T20:02:18.446Z,12.60
2023-03-18T20:04:47.819Z,12.50
2023-03-18T20:07:17.760Z,12.40
2023-03-18T20:09:45.946Z,12.40
2023-03-18T20:12:24.047Z,12.30
2023-03-18T20:14:52.066Z,12.20
2023-03-18T20:17:37.279Z,12.20
2023-03-18T20:20:07.336Z,12.10
2023-03-18T20:22:42.419Z,12.10
2023-03-18T20:25:18.453Z,12.00
2023-03-18T20:27:46.824Z,11.90
2023-03-18T20:30:24.350Z,11.90
2023-03-18T20:32:53.868Z,11.80
2023-03-18T20:35:21.914Z,11.80
2023-03-18T20:37:51.404Z,11.70
2023-03-18T20:40:22.815Z,11.70
2023-03-18T20:42:52.487Z,11.60
2023-03-18T20:45:25.213Z,11.50
2023-03-18T20:48:03.086Z,11.40
2023-03-18T20:51:13.868Z,11.40
2023-03-18T20:53:43.222Z,11.30
2023-03-18T20:56:11.257Z,11.20
2023-03-18T20:58:39.058Z,11.10
2023-03-18T21:01:15.833Z,11.00
2023-03-18T21:04:14.501Z,11.00
2023-03-18T21:06:42.429Z,10.90
2023-03-18T21:09:13.257Z,10.80
2023-03-18T21:11:41.633Z,10.70
2023-03-18T21:14:15.275Z,10.70
2023-03-18T21:16:43.194Z,10.60
2023-03-18T21:19:19.843Z,10.70
2023-03-18T21:21:47.902Z,10.60
2023-03-18T21:24:33.708Z,10.50
2023-03-18T21:27:05.251Z,10.50
2023-03-18T21:29:33.605Z,10.50
2023-03-18T21:32:04.878Z,10.50
2023-03-18T21:34:45.218Z,10.50
2023-03-18T21:37:18.734Z,10.40
2023-03-18T21:39:47.983Z,10.40
2023-03-18T21:42:22.995Z,10.40
2023-03-18T21:44:54.122Z,10.40
2023-03-18T21:47:23.869Z,10.30
2023-03-18T21:49:51.788Z,10.20
2023-03-18T21:52:53.256Z,10.20
2023-03-18T21:56:15.850Z,10.20
2023-03-18T21:58:43.587Z,10.20
2023-03-18T22:01:18.410Z,10.10
2023-03-18T22:03:47.549Z,10.10
2023-03-18T22:06:17.225Z,10.10
2023-03-18T22:08:45.430Z,10.10
2023-03-18T22:11:19.682Z,10.10
2023-03-18T22:13:48.602Z,10.10
2023-03-18T22:16:19.998Z,10.00
2023-03-18T22:18:48.283Z,10.10
2023-03-18T22:21:24.527Z,10.00
2023-03-18T22:23:52.374Z,9.90
2023-03-18T22:26:22.710Z,9.90
2023-03-18T22:28:50.949Z,9.90
2023-03-18T22:31:20.907Z,9.90
2023-03-18T22:33:48.849Z,9.80
2023-03-18T22:36:18.887Z,9.90
2023-03-18T22:38:47.121Z,9.80
2023-03-18T22:41:20.467Z,9.80
2023-03-18T22:43:50.471Z,9.80
2023-03-18T22:46:18.679Z,9.70
2023-03-18T22:48:46.826Z,9.70
2023-03-18T22:51:25.010Z,9.70
2023-03-18T22:53:54.490Z,9.80
2023-03-18T22:56:23.111Z,9.70
2023-03-18T22:58:52.981Z,9.60
2023-03-18T23:01:22.372Z,9.60
2023-03-18T23:03:50.489Z,9.60
2023-03-18T23:06:20.204Z,9.60
2023-03-18T23:08:51.510Z,9.60
2023-03-18T23:11:19.416Z,9.60
2023-03-18T23:13:52.214Z,9.60
2023-03-18T23:16:23.757Z,9.70
2023-03-18T23:18:52.570Z,9.60
2023-03-18T23:21:22.350Z,9.60
2023-03-18T23:23:52.871Z,9.70
2023-03-18T23:26:21.700Z,9.60
2023-03-18T23:28:49.676Z,9.60
2023-03-18T23:31:17.689Z,9.60
2023-03-18T23:33:47.315Z,9.60
2023-03-18T23:36:15.796Z,9.60
2023-03-18T23:38:43.615Z,9.60
2023-03-18T23:41:11.697Z,9.60
2023-03-18T23:43:39.693Z,9.60
2023-03-18T23:46:08.290Z,9.60
2023-03-18T23:48:36.098Z,9.70
2023-03-18T23:51:05.345Z,9.70
2023-03-18T23:53:33.192Z,9.70
2023-03-18T23:56:02.882Z,9.70
2023-03-18T23:58:30.877Z,9.70
